Time;durP1;ratioP1;P1;durP2;ratioP2;P2;SDS_P1;SDS_P2;PMS_P1;PMS_P2;Temp;Humidity;BMP_temperature;BMP_pressure;BME280_temperature;BME280_humidity;BME280_pressure;Samples;Min_cycle;Max_cycle;Signal;HPM_P1;HPM_P2
2023/08/12 00:02:15;;;;;;;1.98;1.88;;;;;;;;;;4955760;29;20208;-73
2023/08/12 00:04:44;;;;;;;2.00;1.98;;;;;;;;;;4955212;29;20207;-75
2023/08/12 00:07:11;;;;;;;2.42;2.33;;;;;;;;;;4955214;29;20734;-73
2023/08/12 00:09:38;;;;;;;2.13;2.13;;;16.20;99.90;;;;;;4955227;29;20211;-71
2023/08/12 00:12:05;;;;;;;2.60;2.50;;;16.20;99.90;;;;;;4955555;29;20208;-72
2023/08/12 00:14:31;;;;;;;2.15;2.05;;;16.20;99.90;;;;;;4955349;29;20208;-72
2023/08/12 00:16:58;;;;;;;2.05;2.00;;;16.10;99.90;;;;;;4955388;29;20228;-71
2023/08/12 00:19:25;;;;;;;1.98;1.92;;;16.10;99.90;;;;;;4955278;29;20204;-71
2023/08/12 00:21:53;;;;;;;2.05;2.03;;;16.10;99.90;;;;;;4955247;29;20204;-70
2023/08/12 00:24:20;;;;;;;1.83;1.83;;;;;;;;;;4955191;29;20204;-70
2023/08/12 00:26:47;;;;;;;1.92;1.90;;;;;;;;;;4955133;29;20276;-71
2023/08/12 00:29:14;;;;;;;2.25;2.15;;;;;;;;;;4954962;28;20235;-71
2023/08/12 00:31:41;;;;;;;2.13;2.03;;;15.90;99.90;;;;;;4954830;29;20672;-71
2023/08/12 00:34:07;;;;;;;2.30;2.20;;;16.00;99.90;;;;;;4955081;29;20204;-71
2023/08/12 00:36:34;;;;;;;2.20;2.10;;;;;;;;;;4954966;29;20230;-71
2023/08/12 00:39:03;;;;;;;2.20;2.05;;;15.90;99.90;;;;;;4955129;29;20210;-72
2023/08/12 00:41:30;;;;;;;2.20;2.15;;;;;;;;;;4955017;29;20239;-72
2023/08/12 00:43:57;;;;;;;2.20;2.10;;;;;;;;;;4955811;29;20575;-71
2023/08/12 00:46:25;;;;;;;2.10;2.00;;;;;;;;;;4954999;29;20215;-71
2023/08/12 00:48:52;;;;;;;2.20;2.10;;;15.80;99.90;;;;;;4954705;29;20735;-71
2023/08/12 00:51:19;;;;;;;1.98;1.90;;;15.80;99.90;;;;;;4954635;29;20568;-71
2023/08/12 00:53:47;;;;;;;2.35;2.25;;;15.80;99.90;;;;;;4954926;29;20200;-71
2023/08/12 00:56:16;;;;;;;1.85;1.85;;;;;;;;;;4954883;28;20218;-72
2023/08/12 00:58:43;;;;;;;2.03;2.00;;;;;;;;;;4958190;29;20664;-71
2023/08/12 01:01:10;;;;;;;2.20;1.90;;;15.70;99.90;;;;;;4958436;29;20231;-71
2023/08/12 01:03:37;;;;;;;2.10;2.00;;;15.80;99.90;;;;;;4958425;29;20211;-71
2023/08/12 01:06:05;;;;;;;2.40;2.30;;;;;;;;;;4958467;29;20219;-71
2023/08/12 01:08:33;;;;;;;2.10;2.10;;;;;;;;;;4958314;29;20223;-71
2023/08/12 01:11:06;;;;;;;2.13;2.00;;;15.80;99.90;;;;;;4958352;29;20201;-71
2023/08/12 01:13:40;;;;;;;2.33;2.22;;;;;;;;;;4958316;29;20271;-71
2023/08/12 01:16:07;;;;;;;2.10;2.10;;;;;;;;;;4958386;29;20198;-72
2023/08/12 01:18:35;;;;;;;2.28;2.17;;;15.90;99.90;;;;;;4958480;29;20231;-72
2023/08/12 01:21:03;;;;;;;2.10;2.00;;;16.00;99.90;;;;;;4957873;29;20696;-71
2023/08/12 01:23:31;;;;;;;1.85;1.85;;;16.00;99.90;;;;;;4957979;29;20208;-71
2023/08/12 01:25:58;;;;;;;2.08;2.00;;;16.00;99.90;;;;;;4957886;29;20586;-72
2023/08/12 01:28:25;;;;;;;1.80;1.80;;;;;;;;;;4957956;29;20227;-73
2023/08/12 01:30:58;;;;;;;2.08;2.00;;;16.10;99.90;;;;;;4957694;29;20220;-71
2023/08/12 01:33:32;;;;;;;2.13;2.13;;;16.30;99.90;;;;;;4958053;29;20196;-71
2023/08/12 01:36:08;;;;;;;2.10;2.00;;;16.30;99.90;;;;;;4957958;29;20199;-71
2023/08/12 01:38:38;;;;;;;1.85;1.85;;;16.40;99.90;;;;;;4957823;29;20203;-72
2023/08/12 01:41:06;;;;;;;2.00;1.90;;;;;;;;;;4972722;23;20227;-71
2023/08/12 01:43:33;;;;;;;1.80;1.80;;;;;;;;;;4958368;29;20324;-71
2023/08/12 01:46:00;;;;;;;1.92;1.83;;;16.40;99.90;;;;;;4958137;29;20208;-71
2023/08/12 01:48:27;;;;;;;2.00;2.00;;;16.50;99.90;;;;;;4957881;29;20200;-72
2023/08/12 01:50:54;;;;;;;1.88;1.88;;;16.50;99.90;;;;;;4958008;29;20231;-72
2023/08/12 01:53:21;;;;;;;1.92;1.85;;;16.50;99.90;;;;;;4957833;29;20206;-72
2023/08/12 01:55:50;;;;;;;2.30;2.20;;;16.60;99.90;;;;;;4957898;29;20207;-72
2023/08/12 01:58:18;;;;;;;1.70;1.70;;;;;;;;;;4958706;29;20215;-71
2023/08/12 02:00:45;;;;;;;2.03;1.90;;;;;;;;;;4961071;29;20234;-72
2023/08/12 02:03:12;;;;;;;1.92;1.92;;;;;;;;;;4960837;29;20204;-72
2023/08/12 02:05:39;;;;;;;2.05;1.95;;;16.40;99.90;;;;;;4958580;29;20204;-72
2023/08/12 02:08:06;;;;;;;2.00;1.90;;;16.70;99.90;;;;;;4957164;28;20571;-72
2023/08/12 02:10:33;;;;;;;1.90;1.80;;;16.70;99.90;;;;;;4958345;29;20231;-71
2023/08/12 02:13:02;;;;;;;1.70;1.60;;;16.80;99.90;;;;;;4957949;29;20239;-71
2023/08/12 02:15:29;;;;;;;1.65;1.65;;;16.80;99.90;;;;;;4957448;29;20231;-71
2023/08/12 02:17:56;;;;;;;1.60;1.60;;;16.80;99.90;;;;;;4957624;29;20207;-72
2023/08/12 02:20:23;;;;;;;1.60;1.60;;;16.80;99.90;;;;;;4957335;29;20232;-72
2023/08/12 02:22:49;;;;;;;1.60;1.60;;;16.80;99.90;;;;;;4957035;29;20703;-72
2023/08/12 02:25:16;;;;;;;1.75;1.75;;;16.80;99.90;;;;;;4957432;29;20212;-73
2023/08/12 02:27:43;;;;;;;2.45;2.33;;;16.80;99.90;;;;;;4957393;29;20242;-72
2023/08/12 02:30:12;;;;;;;1.65;1.65;;;16.80;99.90;;;;;;4956838;29;20224;-72
2023/08/12 02:32:39;;;;;;;2.00;1.90;;;16.80;99.90;;;;;;4956666;29;20691;-72
2023/08/12 02:35:07;;;;;;;1.90;1.90;;;16.80;99.90;;;;;;4956986;29;20248;-72
2023/08/12 02:37:34;;;;;;;1.70;1.70;;;;;;;;;;4956684;29;20208;-71
2023/08/12 02:40:04;;;;;;;2.15;2.05;;;16.60;99.90;;;;;;4956426;29;20606;-71
2023/08/12 02:42:31;;;;;;;2.25;2.15;;;16.70;99.90;;;;;;4956671;29;20192;-71
2023/08/12 02:44:59;;;;;;;2.03;1.92;;;16.70;99.90;;;;;;4956567;29;20227;-71
2023/08/12 02:47:27;;;;;;;1.95;1.95;;;16.70;99.90;;;;;;4956559;29;20243;-71
2023/08/12 02:49:54;;;;;;;2.03;1.92;;;;;;;;;;4956121;29;20715;-71
2023/08/12 02:52:21;;;;;;;1.75;1.75;;;;;;;;;;4956368;29;20207;-71
2023/08/12 02:54:48;;;;;;;1.92;1.90;;;16.70;99.90;;;;;;4956373;29;20204;-71
2023/08/12 02:57:15;;;;;;;1.67;1.67;;;;;;;;;;4956035;29;20676;-71
2023/08/12 02:59:42;;;;;;;1.83;1.83;;;16.70;99.90;;;;;;4956236;29;20224;-71
2023/08/12 03:02:09;;;;;;;2.10;2.00;;;16.80;99.90;;;;;;4956187;29;20224;-71
2023/08/12 03:04:37;;;;;;;2.13;2.03;;;16.80;99.90;;;;;;4956218;29;20207;-71
2023/08/12 03:07:03;;;;;;;2.03;2.03;;;16.80;99.90;;;;;;4956499;29;20215;-71
2023/08/12 03:09:30;;;;;;;1.65;1.65;;;16.80;99.90;;;;;;4957512;29;20208;-72
2023/08/12 03:12:01;;;;;;;1.75;1.75;;;16.80;99.90;;;;;;4955983;29;20210;-72
2023/08/12 03:14:29;;;;;;;1.70;1.70;;;16.80;99.90;;;;;;4955755;29;20189;-71
2023/08/12 03:16:56;;;;;;;1.92;1.83;;;16.80;99.90;;;;;;4955902;29;20204;-71
2023/08/12 03:19:22;;;;;;;2.15;2.15;;;16.80;99.90;;;;;;4955932;28;20204;-71
2023/08/12 03:21:50;;;;;;;1.98;1.92;;;16.80;99.90;;;;;;4955796;29;20236;-71
2023/08/12 03:24:17;;;;;;;2.17;2.08;;;16.80;99.90;;;;;;4955883;29;20215;-71
2023/08/12 03:26:44;;;;;;;2.42;2.33;;;16.90;99.90;;;;;;4955468;29;20620;-71
2023/08/12 03:29:10;;;;;;;2.00;2.00;;;16.90;99.90;;;;;;4955878;29;20211;-71
2023/08/12 03:31:37;;;;;;;2.00;1.95;;;;;;;;;;4955961;29;20582;-71
2023/08/12 03:34:04;;;;;;;2.20;2.20;;;16.80;99.90;;;;;;4955388;29;20699;-71
2023/08/12 03:36:31;;;;;;;1.85;1.77;;;16.80;99.90;;;;;;4955713;29;20219;-71
2023/08/12 03:38:59;;;;;;;2.00;2.00;;;16.90;99.90;;;;;;4955722;29;20208;-71
2023/08/12 03:41:26;;;;;;;2.10;2.10;;;16.80;99.90;;;;;;4955187;29;20319;-71
2023/08/12 03:43:52;;;;;;;2.20;2.10;;;16.80;99.90;;;;;;4955633;29;20199;-71
2023/08/12 03:46:19;;;;;;;1.90;1.90;;;16.80;99.90;;;;;;4955562;29;20214;-71
2023/08/12 03:48:46;;;;;;;2.30;2.20;;;16.80;99.90;;;;;;4955242;29;20203;-71
2023/08/12 03:51:12;;;;;;;1.95;1.95;;;16.80;99.90;;;;;;4955460;29;20224;-71
2023/08/12 03:53:39;;;;;;;1.80;1.80;;;16.80;99.90;;;;;;4955464;29;20208;-72
2023/08/12 03:56:07;;;;;;;1.70;1.70;;;16.80;99.90;;;;;;4955467;29;20226;-72
2023/08/12 03:58:34;;;;;;;2.30;2.20;;;16.80;99.90;;;;;;4955376;29;20215;-71
2023/08/12 04:01:01;;;;;;;1.70;1.70;;;16.80;99.90;;;;;;4955462;29;20239;-71
2023/08/12 04:03:27;;;;;;;1.77;1.77;;;16.70;99.90;;;;;;4955032;29;20548;-72
2023/08/12 04:05:54;;;;;;;2.05;1.90;;;16.70;99.90;;;;;;4955371;29;20279;-71
2023/08/12 04:08:23;;;;;;;1.88;1.88;;;16.60;99.90;;;;;;4955315;29;20219;-71
2023/08/12 04:10:50;;;;;;;1.95;1.85;;;16.60;99.90;;;;;;4955465;29;20230;-71
2023/08/12 04:13:18;;;;;;;1.80;1.80;;;16.50;99.90;;;;;;4955337;29;20204;-71
2023/08/12 04:15:50;;;;;;;2.17;2.08;;;16.50;99.90;;;;;;4955269;29;20208;-71
2023/08/12 04:18:16;;;;;;;1.85;1.75;;;16.50;99.90;;;;;;4955286;29;20184;-71
2023/08/12 04:20:43;;;;;;;2.10;2.10;;;16.50;99.90;;;;;;4955185;29;20235;-71
2023/08/12 04:23:10;;;;;;;2.08;1.98;;;16.50;99.90;;;;;;4955212;29;20215;-72
2023/08/12 04:25:37;;;;;;;1.75;1.75;;;16.50;99.90;;;;;;4954965;29;20568;-72
2023/08/12 04:28:04;;;;;;;1.63;1.63;;;16.50;99.90;;;;;;4954911;29;20695;-71
2023/08/12 04:30:32;;;;;;;1.83;1.83;;;16.50;99.90;;;;;;4955054;29;20230;-71
2023/08/12 04:32:58;;;;;;;1.92;1.92;;;16.50;99.90;;;;;;4957900;28;20208;-71
2023/08/12 04:35:25;;;;;;;1.92;1.85;;;16.50;99.90;;;;;;4958992;29;20208;-71
2023/08/12 04:37:52;;;;;;;2.00;1.90;;;16.50;99.90;;;;;;4958915;29;20208;-71
2023/08/12 04:40:18;;;;;;;1.88;1.75;;;16.50;99.90;;;;;;4958511;28;20236;-71
2023/08/12 04:42:45;;;;;;;1.90;1.90;;;16.50;99.90;;;;;;4958485;29;20723;-71
2023/08/12 04:45:12;;;;;;;1.95;1.85;;;16.60;99.90;;;;;;4959205;29;20204;-71
2023/08/12 04:47:40;;;;;;;1.77;1.77;;;16.70;99.90;;;;;;4958659;29;20667;-71
2023/08/12 04:50:08;;;;;;;2.10;2.10;;;16.80;99.90;;;;;;4958604;29;20312;-71
2023/08/12 04:52:34;;;;;;;1.77;1.77;;;16.90;99.90;;;;;;4958555;29;20675;-71
2023/08/12 04:55:02;;;;;;;1.95;1.85;;;17.00;99.90;;;;;;4958794;29;20225;-71
2023/08/12 04:57:29;;;;;;;1.70;1.70;;;17.10;99.90;;;;;;4958589;29;20208;-72
2023/08/12 04:59:56;;;;;;;1.73;1.73;;;17.20;99.90;;;;;;4958128;29;20730;-72
2023/08/12 05:02:23;;;;;;;1.90;1.80;;;17.20;99.90;;;;;;4958160;29;20251;-72
2023/08/12 05:04:52;;;;;;;2.03;2.03;;;17.30;99.90;;;;;;4958421;29;20204;-72
2023/08/12 05:07:18;;;;;;;1.92;1.92;;;17.50;99.90;;;;;;4958647;29;20212;-72
2023/08/12 05:09:45;;;;;;;1.85;1.85;;;17.60;99.90;;;;;;4958083;29;20599;-71
2023/08/12 05:12:12;;;;;;;1.60;1.60;;;17.70;99.90;;;;;;4958316;29;20569;-71
2023/08/12 05:14:41;;;;;;;1.77;1.77;;;17.70;99.90;;;;;;4958278;29;20575;-71
2023/08/12 05:17:08;;;;;;;1.98;1.98;;;17.80;99.90;;;;;;4958219;29;20207;-71
2023/08/12 05:19:34;;;;;;;1.77;1.77;;;17.90;99.90;;;;;;4958144;29;20254;-71
2023/08/12 05:22:02;;;;;;;1.60;1.60;;;18.00;99.90;;;;;;4957725;29;20786;-71
2023/08/12 05:24:29;;;;;;;1.83;1.80;;;18.10;99.90;;;;;;4958105;29;20328;-71
2023/08/12 05:26:56;;;;;;;1.80;1.80;;;18.40;99.90;;;;;;4958034;29;20210;-71
2023/08/12 05:29:23;;;;;;;2.10;2.00;;;;;;;;;;4957935;29;20230;-71
2023/08/12 05:31:50;;;;;;;1.70;1.60;;;18.60;99.90;;;;;;4957927;29;20200;-71
2023/08/12 05:34:16;;;;;;;1.60;1.60;;;18.90;99.90;;;;;;4958144;29;20536;-71
2023/08/12 05:36:43;;;;;;;2.00;1.90;;;;;;;;;;4959252;29;20203;-71
2023/08/12 05:39:12;;;;;;;1.50;1.50;;;;;;;;;;4959113;29;20204;-72
2023/08/12 05:41:39;;;;;;;1.50;1.50;;;;;;;;;;4957454;29;20230;-71
2023/08/12 05:44:07;;;;;;;1.70;1.70;;;;;;;;;;4956610;28;20212;-71
2023/08/12 05:46:34;;;;;;;1.90;1.80;;;;;;;;;;4957744;29;20215;-72
2023/08/12 05:49:01;;;;;;;1.80;1.70;;;;;;;;;;4957695;29;20219;-72
2023/08/12 05:51:28;;;;;;;1.80;1.70;;;;;;;;;;4957557;29;20219;-72
2023/08/12 05:53:55;;;;;;;1.70;1.70;;;;;;;;;;4957545;29;20208;-72
2023/08/12 05:56:23;;;;;;;1.92;1.83;;;;;;;;;;4957509;29;20230;-72
2023/08/12 05:58:50;;;;;;;1.92;1.92;;;;;;;;;;4957548;29;20208;-72
2023/08/12 06:01:17;;;;;;;2.13;2.13;;;;;;;;;;4958368;29;20575;-73
2023/08/12 06:03:44;;;;;;;1.73;1.70;;;;;;;;;;4956981;29;20204;-73
2023/08/12 06:06:11;;;;;;;1.75;1.75;;;;;;;;;;4957344;29;20207;-72
2023/08/12 06:08:38;;;;;;;1.98;1.88;;;;;;;;;;4957246;29;20207;-72
2023/08/12 06:11:05;;;;;;;2.00;1.90;;;;;;;;;;4957203;29;20230;-72
2023/08/12 06:13:34;;;;;;;2.08;1.98;;;;;;;;;;4957180;29;20206;-71
2023/08/12 06:16:01;;;;;;;2.05;2.05;;;;;;;;;;4956934;29;20209;-71
2023/08/12 06:18:28;;;;;;;2.30;2.20;;;;;;;;;;4957221;29;20203;-71
2023/08/12 06:20:55;;;;;;;1.88;1.88;;;;;;;;;;4957111;29;20259;-70
2023/08/12 06:23:22;;;;;;;2.35;2.25;;;;;;;;;;4956948;29;20223;-71
2023/08/12 06:25:49;;;;;;;2.20;2.20;;;;;;;;;;4957140;29;20571;-70
2023/08/12 06:28:16;;;;;;;2.42;2.33;;;;;;;;;;4956754;29;20195;-70
2023/08/12 06:30:48;;;;;;;2.13;2.03;;;;;;;;;;4956796;29;20223;-70
2023/08/12 06:33:15;;;;;;;2.58;2.47;;;;;;;;;;4956893;29;20188;-70
2023/08/12 06:35:42;;;;;;;2.30;2.20;;;;;;;;;;4957573;29;20208;-71
2023/08/12 06:38:10;;;;;;;2.70;2.60;;;;;;;;;;4956810;29;20214;-71
2023/08/12 06:40:37;;;;;;;2.60;2.50;;;;;;;;;;4956344;29;20235;-71
2023/08/12 06:43:04;;;;;;;2.03;2.03;;;;;;;;;;4956582;29;20234;-71
2023/08/12 06:45:31;;;;;;;2.58;2.47;;;;;;;;;;4956570;29;20207;-71
2023/08/12 06:47:59;;;;;;;2.30;2.20;;;;;;;;;;4956500;29;20215;-71
2023/08/12 06:50:26;;;;;;;2.28;2.17;;;;;;;;;;4956891;29;20223;-71
2023/08/12 06:52:53;;;;;;;2.00;1.90;;;;;;;;;;4956355;29;20222;-71
2023/08/12 06:55:20;;;;;;;2.33;2.22;;;;;;;;;;4956192;28;20204;-71
2023/08/12 06:57:47;;;;;;;2.30;2.20;;;;;;;;;;4956022;29;20532;-71
2023/08/12 07:00:15;;;;;;;2.47;2.38;;;;;;;;;;4956206;29;20242;-70
2023/08/12 07:02:42;;;;;;;2.95;2.50;;;;;;;;;;4956164;29;20227;-70
2023/08/12 07:05:11;;;;;;;2.47;2.38;;;24.60;99.90;;;;;;4956171;29;20254;-70
2023/08/12 07:07:40;;;;;;;2.30;2.20;;;;;;;;;;4955804;29;20664;-70
2023/08/12 07:10:08;;;;;;;2.30;2.20;;;;;;;;;;4956033;29;20316;-71
2023/08/12 07:12:36;;;;;;;2.03;2.00;;;;;;;;;;4956028;29;20200;-71
2023/08/12 07:15:03;;;;;;;2.15;2.05;;;;;;;;;;4956021;29;20258;-70
2023/08/12 07:17:30;;;;;;;2.30;2.13;;;;;;;;;;4956075;29;20210;-70
2023/08/12 07:19:57;;;;;;;1.88;1.88;;;;;;;;;;4955963;29;20227;-70
2023/08/12 07:22:25;;;;;;;1.70;1.70;;;;;;;;;;4955445;29;20226;-70
2023/08/12 07:24:52;;;;;;;2.08;2.00;;;;;;;;;;4955875;29;20207;-70
2023/08/12 07:27:19;;;;;;;2.17;2.08;;;;;;;;;;4955959;29;20207;-71
2023/08/12 07:29:47;;;;;;;1.73;1.73;;;;;;;;;;4955843;29;20587;-71
2023/08/12 07:32:14;;;;;;;2.38;2.17;;;;;;;;;;4955875;29;20200;-71
2023/08/12 07:34:41;;;;;;;2.38;1.90;;;;;;;;;;4955811;29;20215;-72
2023/08/12 07:37:08;;;;;;;2.20;2.10;;;;;;;;;;4955778;29;20211;-71
2023/08/12 07:39:37;;;;;;;2.30;2.20;;;;;;;;;;4955545;29;20555;-71
2023/08/12 07:42:04;;;;;;;2.33;2.22;;;;;;;;;;4955752;29;20211;-71
2023/08/12 07:44:31;;;;;;;2.45;2.35;;;;;;;;;;4955792;29;20207;-72
2023/08/12 07:46:58;;;;;;;2.20;2.10;;;;;;;;;;4955736;29;20203;-71
2023/08/12 07:49:25;;;;;;;2.10;2.08;;;;;;;;;;4955441;29;20667;-71
2023/08/12 07:51:52;;;;;;;2.05;2.05;;;;;;;;;;4955752;29;20305;-74
2023/08/12 07:54:19;;;;;;;2.33;2.22;;;;;;;;;;4956028;29;20211;-73
2023/08/12 07:56:47;;;;;;;2.25;2.15;;;;;;;;;;4955810;29;20215;-73
2023/08/12 07:59:16;;;;;;;2.10;2.03;;;;;;;;;;4955421;29;20207;-72
2023/08/12 08:04:11;;;;;;;2.10;2.10;;;;;;;;;;4972288;23;20290;-73
2023/08/12 08:06:38;;;;;;;1.88;1.88;;;;;;;;;;4954706;29;20215;-71
2023/08/12 08:09:06;;;;;;;2.67;2.17;;;;;;;;;;4955569;29;20214;-70
2023/08/12 08:11:34;;;;;;;1.83;1.83;;;;;;;;;;4955255;29;20204;-72
2023/08/12 08:14:02;;;;;;;1.63;1.63;;;;;;;;;;4955323;29;20224;-70
2023/08/12 08:16:29;;;;;;;2.13;2.03;;;;;;;;;;4955431;29;20214;-69
2023/08/12 08:18:56;;;;;;;3.05;2.58;;;;;;;;;;4955402;29;20224;-70
2023/08/12 08:21:24;;;;;;;2.35;2.28;;;;;;;;;;4955230;29;20215;-70
2023/08/12 08:23:51;;;;;;;2.65;2.55;;;23.80;99.90;;;;;;4955120;29;20286;-70
2023/08/12 08:26:18;;;;;;;3.10;2.90;;;23.70;99.90;;;;;;4955277;29;20210;-70
2023/08/12 08:28:44;;;;;;;2.50;2.40;;;23.80;99.90;;;;;;4955325;29;20267;-70
2023/08/12 08:31:13;;;;;;;2.50;2.40;;;;;;;;;;4955394;29;20214;-71
2023/08/12 08:33:40;;;;;;;2.65;2.55;;;;;;;;;;4955138;29;20227;-70
2023/08/12 08:36:07;;;;;;;2.10;2.10;;;;;;;;;;4954841;29;20578;-70
2023/08/12 08:38:34;;;;;;;2.30;2.20;;;;;;;;;;4955187;29;20199;-70
2023/08/12 08:41:02;;;;;;;2.20;2.15;;;;;;;;;;4955125;29;20210;-69
2023/08/12 08:43:29;;;;;;;2.15;2.05;;;;;;;;;;4954934;29;20234;-69
2023/08/12 08:45:57;;;;;;;2.22;2.13;;;;;;;;;;4955033;29;20203;-69
2023/08/12 08:48:25;;;;;;;1.88;1.77;;;;;;;;;;4955078;29;20199;-69
2023/08/12 08:50:53;;;;;;;1.83;1.83;;;;;;;;;;4955406;29;20203;-69
2023/08/12 08:53:20;;;;;;;1.70;1.70;;;;;;;;;;4954961;29;20234;-68
2023/08/12 08:55:47;;;;;;;2.03;1.80;;;;;;;;;;4954730;29;20204;-69
2023/08/12 08:58:14;;;;;;;2.63;2.53;;;;;;;;;;4954991;29;20214;-69
2023/08/12 09:00:42;;;;;;;1.90;1.90;;;;;;;;;;4954827;29;20203;-70
2023/08/12 09:03:10;;;;;;;2.58;2.47;;;;;;;;;;4954581;29;20239;-70
2023/08/12 09:05:40;;;;;;;2.72;2.63;;;;;;;;;;4954813;29;20203;-69
2023/08/12 09:08:10;;;;;;;2.13;2.03;;;;;;;;;;4954530;29;20687;-71
2023/08/12 09:10:37;;;;;;;1.90;1.90;;;;;;;;;;4954898;29;20196;-69
2023/08/12 09:13:05;;;;;;;2.33;2.28;;;;;;;;;;4954284;29;20220;-70
2023/08/12 09:15:32;;;;;;;2.40;2.20;;;;;;;;;;4954583;29;20199;-69
2023/08/12 09:17:59;;;;;;;2.58;2.47;;;;;;;;;;4955504;28;20203;-69
2023/08/12 09:20:25;;;;;;;3.00;2.90;;;26.60;99.90;;;;;;4957796;29;20212;-70
2023/08/12 09:22:58;;;;;;;2.50;2.30;;;26.70;99.90;;;;;;4957968;29;20316;-70
2023/08/12 09:25:25;;;;;;;2.83;2.55;;;;;;;;;;4958096;29;20199;-69
2023/08/12 09:27:54;;;;;;;2.72;2.60;;;27.10;99.90;;;;;;4958021;29;20211;-69
2023/08/12 09:30:22;;;;;;;2.55;2.45;;;27.50;99.90;;;;;;4957992;29;20310;-69
2023/08/12 09:33:00;;;;;;;2.70;2.60;;;27.70;99.90;;;;;;4957523;29;20794;-69
2023/08/12 09:35:32;;;;;;;2.03;2.03;;;;;;;;;;4957901;29;20191;-69
2023/08/12 09:38:03;;;;;;;2.13;2.08;;;28.20;99.90;;;;;;4958004;29;20188;-69
2023/08/12 09:40:30;;;;;;;1.85;1.75;;;28.30;99.90;;;;;;4957889;29;20199;-69
2023/08/12 09:42:57;;;;;;;1.98;1.95;;;28.30;99.90;;;;;;4957659;29;20254;-69
2023/08/12 09:45:29;;;;;;;1.83;1.83;;;;;;;;;;4957463;29;20659;-69
2023/08/12 09:47:57;;;;;;;2.00;1.90;;;;;;;;;;4957721;29;20196;-69
2023/08/12 09:50:25;;;;;;;2.00;2.00;;;;;;;;;;4957361;29;20204;-68
2023/08/12 09:52:52;;;;;;;2.75;1.92;;;;;;;;;;4957529;29;20644;-68
2023/08/12 09:55:23;;;;;;;2.42;1.70;;;;;;;;;;4957642;29;20216;-71
2023/08/12 09:57:52;;;;;;;2.35;2.25;;;;;;;;;;4957587;29;20187;-69
2023/08/12 10:00:21;;;;;;;2.28;2.17;;;;;;;;;;4957521;29;20235;-69
2023/08/12 10:02:48;;;;;;;2.03;1.92;;;;;;;;;;4957099;29;20223;-69
2023/08/12 10:05:19;;;;;;;2.10;2.00;;;;;;;;;;4957424;29;20210;-69
2023/08/12 10:07:47;;;;;;;2.05;1.95;;;;;;;;;;4957428;29;20191;-69
2023/08/12 10:10:14;;;;;;;1.90;1.90;;;;;;;;;;4957339;29;20200;-69
2023/08/12 10:12:42;;;;;;;2.53;2.22;;;;;;;;;;4957209;29;20228;-69
2023/08/12 10:15:10;;;;;;;2.08;2.00;;;;;;;;;;4956943;29;20574;-69
2023/08/12 10:17:37;;;;;;;2.22;2.22;;;;;;;;;;4956915;29;20575;-69
2023/08/12 10:20:06;;;;;;;2.65;2.55;;;;;;;;;;4956890;29;20689;-69
2023/08/12 10:22:34;;;;;;;2.00;2.00;;;;;;;;;;4956948;29;20278;-69
2023/08/12 10:25:03;;;;;;;2.25;2.22;;;;;;;;;;4957107;29;20211;-69
2023/08/12 10:27:30;;;;;;;2.97;2.85;;;;;;;;;;4957074;29;20207;-69
2023/08/12 10:29:59;;;;;;;2.13;2.03;;;;;;;;;;4956048;28;20694;-69
2023/08/12 10:32:26;;;;;;;2.40;2.30;;;;;;;;;;4956801;29;20227;-69
2023/08/12 10:34:57;;;;;;;2.35;2.25;;;;;;;;;;4956850;29;20204;-69
2023/08/12 10:37:25;;;;;;;2.80;2.60;;;;;;;;;;4956803;29;20204;-69
2023/08/12 10:39:54;;;;;;;2.63;2.53;;;;;;;;;;4956694;29;20206;-69
2023/08/12 10:42:39;;;;;;;2.67;2.47;;;;;;;;;;4956587;29;20231;-69
2023/08/12 10:45:09;;;;;;;2.15;2.10;;;;;;;;;;4956600;29;20199;-68
2023/08/12 10:47:39;;;;;;;2.95;2.75;;;;;;;;;;4956743;29;20271;-68
2023/08/12 10:50:06;;;;;;;2.78;2.53;;;;;;;;;;4956760;29;20211;-69
2023/08/12 10:52:35;;;;;;;3.22;3.03;;;;;;;;;;4956421;29;20601;-69
2023/08/12 10:55:18;;;;;;;2.80;2.70;;;;;;;;;;4956953;29;20210;-69
2023/08/12 10:57:45;;;;;;;2.33;2.22;;;;;;;;;;4956692;29;20211;-69
2023/08/12 11:00:14;;;;;;;2.90;2.80;;;;;;;;;;4956805;29;20208;-69
2023/08/12 11:02:45;;;;;;;3.20;2.83;;;;;;;;;;4956037;29;20745;-69
2023/08/12 11:05:13;;;;;;;2.42;2.33;;;;;;;;;;4956517;29;20188;-68
2023/08/12 11:07:40;;;;;;;2.33;2.28;;;;;;;;;;4956394;29;20199;-69
2023/08/12 11:10:11;;;;;;;2.35;2.10;;;;;;;;;;4956627;29;20231;-68
2023/08/12 11:12:39;;;;;;;2.40;2.30;;;;;;;;;;4956340;29;20785;-69
2023/08/12 11:15:07;;;;;;;2.53;2.42;;;;;;;;;;4956447;29;20200;-69
2023/08/12 11:17:36;;;;;;;2.58;2.47;;;;;;;;;;4956395;29;20214;-70
2023/08/12 11:20:05;;;;;;;2.15;2.13;;;;;;;;;;4956374;29;20199;-69
2023/08/12 11:22:32;;;;;;;2.20;2.20;;;;;;;;;;4956376;29;20227;-69
2023/08/12 11:24:59;;;;;;;2.20;2.10;;;;;;;;;;4956143;29;20219;-69
2023/08/12 11:27:26;;;;;;;2.10;2.00;;;;;;;;;;4956189;29;20207;-69
2023/08/12 11:29:53;;;;;;;2.15;2.10;;;;;;;;;;4956226;29;20203;-69
2023/08/12 11:32:21;;;;;;;1.90;1.80;;;;;;;;;;4956130;29;20270;-69
2023/08/12 11:34:50;;;;;;;2.03;2.00;;;;;;;;;;4955930;29;20199;-69
2023/08/12 11:37:17;;;;;;;2.05;1.95;;;;;;;;;;4956100;29;20202;-70
2023/08/12 11:39:44;;;;;;;1.60;1.50;;;;;;;;;;4955892;29;20200;-69
2023/08/12 11:42:11;;;;;;;2.42;2.33;;;;;;;;;;4954981;28;20234;-69
2023/08/12 11:44:38;;;;;;;1.85;1.77;;;;;;;;;;4955979;29;20223;-69
2023/08/12 11:47:05;;;;;;;1.90;1.80;;;;;;;;;;4955922;29;20227;-69
2023/08/12 11:49:32;;;;;;;1.92;1.83;;;;;;;;;;4955544;29;20562;-69
2023/08/12 11:52:01;;;;;;;2.05;1.95;;;;;;;;;;4955526;29;20659;-69
2023/08/12 11:54:28;;;;;;;1.70;1.67;;;;;;;;;;4955907;29;20199;-69
2023/08/12 11:56:56;;;;;;;2.00;1.90;;;;;;;;;;4955577;29;20212;-69
2023/08/12 11:59:23;;;;;;;2.03;1.92;;;;;;;;;;4955373;29;20668;-69
2023/08/12 12:01:51;;;;;;;1.70;1.70;;;;;;;;;;4955288;29;20204;-69
2023/08/12 12:04:20;;;;;;;1.98;1.88;;;;;;;;;;4955335;29;20233;-69
2023/08/12 12:06:47;;;;;;;1.73;1.63;;;;;;;;;;4955448;29;20604;-69
2023/08/12 12:09:18;;;;;;;1.50;1.50;;;;;;;;;;4955437;29;20199;-69
2023/08/12 12:11:45;;;;;;;1.48;1.48;;;;;;;;;;4955607;29;20187;-69
2023/08/12 12:14:12;;;;;;;1.73;1.73;;;;;;;;;;4956169;29;20210;-69
2023/08/12 12:16:40;;;;;;;1.85;1.75;;;;;;;;;;4955659;29;20207;-69
2023/08/12 12:19:10;;;;;;;2.20;2.00;;;;;;;;;;4955964;29;20255;-69
2023/08/12 12:21:41;;;;;;;1.70;1.60;;;;;;;;;;4955757;29;20203;-69
2023/08/12 12:24:08;;;;;;;1.85;1.85;;;;;;;;;;4955486;29;20231;-69
2023/08/12 12:26:37;;;;;;;1.90;1.80;;;;;;;;;;4955332;29;20210;-69
2023/08/12 12:29:05;;;;;;;2.15;2.05;;;;;;;;;;4955366;29;20203;-69
2023/08/12 12:31:33;;;;;;;1.83;1.73;;;;;;;;;;4955247;29;20208;-69
2023/08/12 12:34:00;;;;;;;1.50;1.40;;;;;;;;;;4955144;29;20638;-69
2023/08/12 12:36:27;;;;;;;1.58;1.48;;;;;;;;;;4955411;29;20207;-69
2023/08/12 12:38:54;;;;;;;1.70;1.60;;;;;;;;;;4954887;29;20671;-69
2023/08/12 12:41:21;;;;;;;1.67;1.65;;;;;;;;;;4954845;29;20671;-70
2023/08/12 12:43:50;;;;;;;1.35;1.35;;;;;;;;;;4954977;29;20255;-69
2023/08/12 12:46:17;;;;;;;1.45;1.45;;;;;;;;;;4955186;29;20206;-69
2023/08/12 12:48:44;;;;;;;1.92;1.83;;;;;;;;;;4955115;29;20207;-69
2023/08/12 12:51:12;;;;;;;1.67;1.67;;;;;;;;;;4954871;29;20207;-69
2023/08/12 12:53:39;;;;;;;2.20;1.58;;;;;;;;;;4960079;28;20219;-69
2023/08/12 12:56:06;;;;;;;1.90;1.80;;;;;;;;;;4959637;29;20208;-69
2023/08/12 12:58:34;;;;;;;2.25;2.15;;;;;;;;;;4958677;29;20219;-69
2023/08/12 13:01:02;;;;;;;2.10;1.90;;;;;;;;;;4958286;29;20615;-69
2023/08/12 13:03:31;;;;;;;1.80;1.70;;;;;;;;;;4958113;29;20238;-69
2023/08/12 13:05:58;;;;;;;1.67;1.67;;;;;;;;;;4958626;29;20203;-69
2023/08/12 13:08:25;;;;;;;1.50;1.50;;;;;;;;;;4958333;29;20671;-69
2023/08/12 13:10:52;;;;;;;1.90;1.80;;;;;;;;;;4958858;29;20216;-69
2023/08/12 13:13:19;;;;;;;1.70;1.70;;;;;;;;;;4958838;29;20223;-69
2023/08/12 13:15:47;;;;;;;2.22;2.10;;;;;;;;;;4959027;29;20219;-69
2023/08/12 13:18:15;;;;;;;2.13;2.03;;;;;;;;;;4958473;29;20200;-69
2023/08/12 13:20:42;;;;;;;1.67;1.63;;;;;;;;;;4958459;29;20230;-69
2023/08/12 13:23:09;;;;;;;2.08;1.98;;;;;;;;;;4957890;29;20268;-71
2023/08/12 13:25:37;;;;;;;2.10;1.90;;;;;;;;;;4958077;29;20722;-74
2023/08/12 13:28:04;;;;;;;2.17;2.08;;;;;;;;;;4958960;29;20203;-73
2023/08/12 13:30:31;;;;;;;1.70;1.70;;;;;;;;;;4958772;29;20210;-73
2023/08/12 13:32:58;;;;;;;1.70;1.70;;;;;;;;;;4958125;29;20227;-73
2023/08/12 13:35:27;;;;;;;2.10;1.90;;;;;;;;;;4958020;29;20203;-71
2023/08/12 13:37:54;;;;;;;2.20;2.10;;;;;;;;;;4957864;29;20207;-72
2023/08/12 13:40:21;;;;;;;2.25;2.15;;;;;;;;;;4958039;29;20294;-70
2023/08/12 13:42:49;;;;;;;2.15;2.05;;;;;;;;;;4957613;29;20730;-70
2023/08/12 13:45:16;;;;;;;2.78;2.22;;;;;;;;;;4957819;29;20223;-71
2023/08/12 13:47:43;;;;;;;2.13;2.08;;;;;;;;;;4958430;29;20214;-71
2023/08/12 13:50:11;;;;;;;2.13;2.13;;;;;;;;;;4958051;29;20299;-70
2023/08/12 13:52:39;;;;;;;1.75;1.73;;;;;;;;;;4958144;29;20224;-71
2023/08/12 13:55:07;;;;;;;1.70;1.70;;;;;;;;;;4957985;29;20196;-70
2023/08/12 13:57:34;;;;;;;1.95;1.85;;;;;;;;;;4957774;29;20207;-71
2023/08/12 14:00:01;;;;;;;1.83;1.73;;;;;;;;;;4957575;29;20207;-71
2023/08/12 14:02:29;;;;;;;1.83;1.77;;;;;;;;;;4957489;29;20238;-71
2023/08/12 14:04:56;;;;;;;2.03;1.92;;;;;;;;;;4956970;28;20219;-71